createdAt,value
2019-04-19T00:00:37.118Z,4.00
2019-04-19T00:01:45.097Z,4.00
2019-04-19T00:02:41.527Z,4.00
2019-04-19T00:03:39.226Z,4.00
2019-04-19T00:04:41.378Z,4.00
2019-04-19T00:05:41.263Z,4.00
2019-04-19T00:06:40.610Z,4.00
2019-04-19T00:07:39.714Z,4.00
2019-04-19T00:08:58.629Z,4.00
2019-04-19T00:09:49.553Z,4.00
2019-04-19T00:10:44.638Z,4.00
2019-04-19T00:11:43.947Z,4.00
2019-04-19T00:12:45.210Z,4.00
2019-04-19T00:13:36.864Z,4.00
2019-04-19T00:14:37.854Z,4.00
2019-04-19T00:15:37.355Z,4.00
2019-04-19T00:16:36.806Z,4.00
2019-04-19T00:17:38.416Z,4.00
2019-04-19T00:18:43.731Z,4.00
2019-04-19T00:19:55.586Z,4.00
2019-04-19T00:21:00.011Z,4.00
2019-04-19T00:22:04.358Z,4.00
2019-04-19T00:22:57.094Z,4.00
2019-04-19T00:23:40.574Z,4.00
2019-04-19T00:24:37.567Z,4.00
2019-04-19T00:25:36.754Z,4.00
2019-04-19T00:26:37.880Z,4.00
2019-04-19T00:27:44.172Z,4.00
2019-04-19T00:28:44.366Z,4.00
2019-04-19T00:29:44.778Z,4.00
2019-04-19T00:30:48.914Z,4.00
2019-04-19T00:31:45.171Z,4.00
2019-04-19T00:32:54.814Z,4.00
2019-04-19T00:33:41.506Z,4.00
2019-04-19T00:34:37.682Z,4.00
2019-04-19T00:35:36.805Z,4.00
2019-04-19T00:36:36.423Z,4.00
2019-04-19T00:37:36.563Z,4.00
2019-04-19T00:38:49.574Z,4.00
2019-04-19T00:39:49.638Z,4.00
2019-04-19T00:40:46.103Z,4.00
2019-04-19T00:41:57.137Z,4.00
2019-04-19T00:42:48.322Z,4.00
2019-04-19T00:43:55.949Z,4.00
2019-04-19T00:44:59.332Z,4.00
2019-04-19T00:45:58.529Z,4.00
2019-04-19T00:46:59.787Z,4.00
2019-04-19T00:47:52.575Z,4.00
2019-04-19T00:48:52.474Z,4.00
2019-04-19T00:49:55.383Z,4.00
2019-04-19T00:50:53.055Z,4.00
2019-04-19T00:51:49.320Z,4.00
2019-04-19T00:52:53.203Z,4.00
2019-04-19T00:53:43.849Z,4.00
2019-04-19T00:54:50.601Z,4.00
2019-04-19T00:55:48.658Z,4.00
2019-04-19T00:56:48.098Z,4.00
2019-04-19T00:57:43.440Z,4.00
2019-04-19T00:58:38.702Z,4.00
2019-04-19T00:59:40.297Z,4.00
2019-04-19T01:00:39.510Z,4.00
2019-04-19T01:01:35.926Z,4.00
2019-04-19T01:02:44.115Z,4.00
2019-04-19T01:03:41.854Z,4.00
2019-04-19T01:04:36.735Z,4.00
2019-04-19T01:05:46.153Z,4.00
2019-04-19T01:06:43.953Z,4.00
2019-04-19T01:07:38.738Z,4.00
2019-04-19T01:08:49.944Z,4.00
2019-04-19T01:09:48.895Z,4.00
2019-04-19T01:10:48.839Z,4.00
2019-04-19T01:11:51.691Z,4.00
2019-04-19T01:12:52.588Z,4.00
2019-04-19T01:13:51.472Z,4.00
2019-04-19T01:14:45.445Z,4.00
2019-04-19T01:15:51.142Z,4.00
2019-04-19T01:16:51.683Z,4.00
2019-04-19T01:17:53.964Z,4.00
2019-04-19T01:18:44.412Z,4.00
2019-04-19T01:19:38.967Z,4.00
2019-04-19T01:20:35.550Z,4.00
2019-04-19T01:21:36.434Z,4.00
2019-04-19T01:22:36.250Z,4.00
2019-04-19T01:23:44.275Z,4.00
2019-04-19T01:24:40.369Z,4.00
2019-04-19T01:25:35.461Z,4.00
2019-04-19T01:26:40.806Z,4.00
2019-04-19T01:27:36.426Z,4.00
2019-04-19T01:28:35.409Z,4.00
2019-04-19T01:29:38.141Z,4.00
2019-04-19T01:30:39.813Z,4.00
2019-04-19T01:31:35.659Z,4.00
2019-04-19T01:32:44.412Z,4.00
2019-04-19T01:33:39.380Z,4.00
2019-04-19T01:34:35.631Z,4.00
2019-04-19T01:35:43.363Z,4.00
2019-04-19T01:36:38.858Z,4.00
2019-04-19T01:37:35.211Z,4.00
2019-04-19T01:38:40.965Z,4.00
2019-04-19T01:39:55.799Z,4.00
2019-04-19T01:40:53.434Z,4.00
2019-04-19T01:41:48.023Z,4.00
2019-04-19T01:42:49.890Z,4.00
2019-04-19T01:43:53.461Z,4.00
2019-04-19T01:44:54.488Z,4.00
2019-04-19T01:45:52.983Z,4.00
2019-04-19T01:46:53.531Z,4.00
2019-04-19T01:47:51.515Z,4.00
2019-04-19T01:48:51.641Z,4.00
2019-04-19T01:49:49.229Z,4.00
2019-04-19T01:50:50.760Z,4.00
2019-04-19T01:51:54.179Z,4.00
2019-04-19T01:52:59.467Z,4.00
2019-04-19T01:53:51.272Z,4.00
2019-04-19T01:54:49.017Z,4.00
2019-04-19T01:55:38.495Z,4.00
2019-04-19T01:56:44.139Z,4.00
2019-04-19T01:57:34.806Z,4.00
2019-04-19T01:58:38.845Z,4.00
2019-04-19T01:59:41.721Z,4.00
2019-04-19T02:00:44.103Z,4.00
2019-04-19T02:01:35.977Z,4.00
2019-04-19T02:02:37.793Z,4.00
2019-04-19T02:03:38.733Z,4.00
2019-04-19T02:04:36.455Z,4.00
2019-04-19T02:05:36.111Z,4.00
2019-04-19T02:06:39.541Z,4.00
2019-04-19T02:07:35.876Z,4.00
2019-04-19T02:08:44.625Z,4.00
2019-04-19T02:09:48.729Z,4.00
2019-04-19T02:10:44.000Z,4.00
2019-04-19T02:11:45.233Z,4.00
2019-04-19T02:12:44.960Z,4.00
2019-04-19T02:13:42.740Z,4.00
2019-04-19T02:14:44.786Z,4.00
2019-04-19T02:15:40.695Z,4.00
2019-04-19T02:16:34.682Z,4.00
2019-04-19T02:17:41.454Z,4.00
2019-04-19T02:18:35.550Z,4.00
2019-04-19T02:19:35.546Z,4.00
2019-04-19T02:20:40.609Z,4.00
2019-04-19T02:21:38.011Z,4.00
2019-04-19T02:22:36.792Z,4.00
2019-04-19T02:23:41.771Z,4.00
2019-04-19T02:24:40.455Z,4.00
2019-04-19T02:25:35.331Z,4.00
2019-04-19T02:26:34.256Z,4.00
2019-04-19T02:27:39.053Z,4.00
2019-04-19T02:28:38.349Z,4.00
2019-04-19T02:29:35.453Z,4.00
2019-04-19T02:30:49.698Z,4.00
2019-04-19T02:32:05.037Z,4.00
2019-04-19T02:32:53.811Z,4.00
2019-04-19T02:34:08.550Z,4.00
2019-04-19T02:35:01.011Z,4.00
2019-04-19T02:36:03.829Z,4.00
2019-04-19T02:37:09.098Z,4.00
2019-04-19T02:37:57.433Z,4.00
2019-04-19T02:39:05.090Z,4.00
2019-04-19T02:41:08.519Z,4.00
2019-04-19T02:42:12.189Z,4.00
2019-04-19T02:43:03.401Z,4.00
2019-04-19T02:44:10.863Z,4.00
2019-04-19T02:46:16.227Z,4.00
2019-04-19T02:47:09.098Z,4.00
2019-04-19T02:47:57.757Z,4.00
2019-04-19T02:49:09.584Z,4.00
2019-04-19T02:51:17.120Z,4.00
2019-04-19T02:52:00.950Z,4.00
2019-04-19T02:53:18.550Z,4.00
2019-04-19T02:54:02.548Z,4.00
2019-04-19T02:55:04.695Z,4.00
2019-04-19T02:56:03.872Z,4.00
2019-04-19T02:57:02.120Z,4.00
2019-04-19T02:59:01.745Z,4.00
2019-04-19T03:00:05.896Z,4.00
2019-04-19T03:01:03.703Z,4.00
2019-04-19T03:02:04.455Z,4.00
2019-04-19T03:04:14.360Z,4.00
2019-04-19T03:05:11.169Z,4.00
2019-04-19T03:05:53.152Z,4.00
2019-04-19T03:06:41.563Z,4.00
2019-04-19T03:07:34.452Z,4.00
2019-04-19T03:08:33.448Z,4.00
2019-04-19T03:09:38.952Z,4.00
2019-04-19T03:10:48.912Z,4.00
2019-04-19T03:11:50.567Z,4.00
2019-04-19T03:12:51.614Z,4.00
2019-04-19T03:13:47.650Z,4.00
2019-04-19T03:14:56.464Z,4.00
2019-04-19T03:15:51.938Z,4.00
2019-04-19T03:16:52.588Z,4.00
2019-04-19T03:17:51.834Z,4.00
2019-04-19T03:18:46.787Z,4.00
2019-04-19T03:19:49.793Z,4.00
2019-04-19T03:20:43.192Z,4.00
2019-04-19T03:21:49.164Z,4.00
2019-04-19T03:22:51.705Z,4.00
2019-04-19T03:23:53.499Z,4.00
2019-04-19T03:25:08.263Z,4.00
2019-04-19T03:25:45.569Z,4.00
2019-04-19T03:26:45.735Z,4.00
2019-04-19T03:27:48.337Z,4.00
2019-04-19T03:28:40.493Z,4.00
2019-04-19T03:29:38.882Z,4.00
2019-04-19T03:31:05.249Z,4.00
2019-04-19T03:32:11.594Z,4.00
2019-04-19T03:33:07.161Z,4.00
2019-04-19T03:33:58.908Z,4.00
2019-04-19T03:35:00.999Z,4.00
2019-04-19T03:35:53.912Z,4.00
2019-04-19T03:36:47.268Z,4.00
2019-04-19T03:37:58.949Z,4.00
2019-04-19T03:38:47.184Z,4.00
2019-04-19T03:39:53.700Z,8.00
2019-04-19T03:40:51.397Z,4.00
2019-04-19T03:42:01.011Z,4.00
2019-04-19T03:42:49.256Z,4.00
2019-04-19T03:43:52.187Z,4.00
2019-04-19T03:44:56.255Z,4.00
2019-04-19T03:45:57.665Z,4.00
2019-04-19T03:48:47.873Z,8.00
2019-04-19T03:49:52.481Z,8.00
2019-04-19T03:50:56.166Z,4.00
2019-04-19T03:51:57.671Z,4.00
2019-04-19T03:52:48.735Z,8.00
2019-04-19T03:54:05.967Z,4.00
2019-04-19T03:54:48.716Z,8.00
2019-04-19T03:55:59.496Z,8.00
2019-04-19T03:56:53.226Z,12.00
2019-04-19T03:57:42.660Z,12.00
2019-04-19T03:58:33.854Z,12.00
2019-04-19T03:59:33.140Z,12.00
2019-04-19T04:00:32.286Z,12.00
2019-04-19T04:01:37.596Z,16.00
2019-04-19T04:02:38.022Z,16.00
2019-04-19T04:03:37.827Z,16.00
2019-04-19T04:04:35.124Z,20.00
2019-04-19T04:05:36.732Z,20.00
2019-04-19T04:06:36.640Z,24.00
2019-04-19T04:07:33.623Z,28.00
2019-04-19T04:08:32.835Z,32.00
2019-04-19T04:09:40.595Z,36.00
2019-04-19T04:10:36.134Z,44.00
2019-04-19T04:11:33.379Z,52.00
2019-04-19T04:12:44.002Z,60.00
2019-04-19T04:13:40.871Z,68.00
2019-04-19T04:14:49.504Z,80.00
2019-04-19T04:15:47.729Z,88.00
2019-04-19T04:16:38.961Z,100.00
2019-04-19T04:17:33.288Z,108.00
2019-04-19T04:18:32.360Z,124.00
2019-04-19T04:19:31.855Z,140.00
2019-04-19T04:20:35.288Z,156.00
2019-04-19T04:21:37.137Z,172.00
2019-04-19T04:22:37.329Z,188.00
2019-04-19T04:23:37.536Z,212.00
2019-04-19T04:24:38.826Z,232.00
2019-04-19T04:25:44.255Z,252.00
2019-04-19T04:26:44.380Z,276.00
2019-04-19T04:27:46.473Z,300.00
2019-04-19T04:28:45.874Z,324.00
2019-04-19T04:29:39.472Z,352.00
2019-04-19T04:30:36.806Z,380.00
2019-04-19T04:31:43.577Z,412.00
2019-04-19T04:32:43.146Z,444.00
2019-04-19T04:33:42.569Z,476.00
2019-04-19T04:34:40.872Z,508.00
2019-04-19T04:35:49.472Z,544.00
2019-04-19T04:36:49.423Z,584.00
2019-04-19T04:37:44.868Z,620.00
2019-04-19T04:38:37.947Z,660.00
2019-04-19T04:39:32.409Z,700.00
2019-04-19T04:40:31.775Z,740.00
2019-04-19T04:41:34.051Z,784.00
2019-04-19T04:42:40.422Z,828.00
2019-04-19T04:43:43.484Z,872.00
2019-04-19T04:44:50.934Z,920.00
2019-04-19T04:45:59.445Z,960.00
2019-04-19T04:46:53.007Z,1008.00
2019-04-19T04:47:47.773Z,1056.00
2019-04-19T04:48:49.335Z,1108.00
2019-04-19T04:49:53.867Z,1160.00
2019-04-19T04:50:56.199Z,1208.00
2019-04-19T04:51:49.564Z,1260.00
2019-04-19T04:52:35.680Z,1308.00
2019-04-19T04:53:32.110Z,1360.00
2019-04-19T04:54:31.384Z,1408.00
2019-04-19T04:55:31.089Z,1464.00
2019-04-19T04:56:37.826Z,1516.00
2019-04-19T04:57:41.641Z,1568.00
2019-04-19T04:58:35.923Z,1624.00
2019-04-19T04:59:34.647Z,1676.00
2019-04-19T05:00:38.482Z,1728.00
2019-04-19T05:01:42.518Z,1780.00
2019-04-19T05:02:46.098Z,1832.00
2019-04-19T05:03:51.118Z,1888.00
2019-04-19T05:04:45.728Z,1936.00
2019-04-19T05:05:43.828Z,1992.00
2019-04-19T05:06:54.697Z,2048.00
2019-04-19T05:07:53.010Z,2100.00
2019-04-19T05:08:50.478Z,2156.00
2019-04-19T05:09:49.846Z,2212.00
2019-04-19T05:10:43.835Z,2264.00
2019-04-19T05:11:51.963Z,2320.00
2019-04-19T05:13:08.885Z,2372.00
2019-04-19T05:13:54.468Z,2428.00
2019-04-19T05:14:47.801Z,2480.00
2019-04-19T05:15:47.935Z,2532.00
2019-04-19T05:17:52.413Z,2644.00
2019-04-19T05:18:52.685Z,2704.00
2019-04-19T05:19:53.701Z,2760.00
2019-04-19T05:20:45.943Z,2816.00
2019-04-19T05:21:44.633Z,2872.00
2019-04-19T05:22:49.904Z,2924.00
2019-04-19T05:23:57.797Z,2984.00
2019-04-19T05:24:57.073Z,3044.00
2019-04-19T05:25:52.049Z,3104.00
2019-04-19T05:26:53.233Z,3172.00
2019-04-19T05:27:52.632Z,3240.00
2019-04-19T05:28:47.527Z,3308.00
2019-04-19T05:29:37.926Z,3384.00
2019-04-19T05:30:41.229Z,3468.00
2019-04-19T05:31:38.065Z,3556.00
2019-04-19T05:32:34.916Z,3664.00
2019-04-19T05:33:45.281Z,3804.00
2019-04-19T05:34:49.760Z,3984.00
2019-04-19T05:35:52.304Z,4192.00
2019-04-19T05:36:53.484Z,4444.00
2019-04-19T05:37:54.520Z,5284.00
2019-04-19T05:38:56.132Z,9672.00
2019-04-19T05:39:51.345Z,15488.00
2019-04-19T05:40:43.713Z,19584.00
2019-04-19T05:41:48.995Z,20864.00
2019-04-19T05:42:44.643Z,21440.00
2019-04-19T05:44:06.994Z,21792.00
2019-04-19T05:44:55.277Z,22080.00
2019-04-19T05:45:58.104Z,22816.00
2019-04-19T05:46:50.145Z,20672.00
2019-04-19T05:47:43.058Z,15520.00
2019-04-19T05:48:41.754Z,15488.00
2019-04-19T05:49:47.988Z,23776.00
2019-04-19T05:50:56.743Z,24672.00
2019-04-19T05:52:00.787Z,25152.00
2019-04-19T05:52:48.321Z,27808.00
2019-04-19T05:53:38.807Z,28832.00
2019-04-19T05:54:30.110Z,28256.00
2019-04-19T05:55:30.359Z,27264.00
2019-04-19T05:56:30.842Z,28160.00
2019-04-19T05:57:48.801Z,30624.00
2019-04-19T05:58:45.253Z,31744.00
2019-04-19T05:59:42.512Z,29728.00
2019-04-19T06:00:47.279Z,23008.00
2019-04-19T06:01:46.957Z,19520.00
2019-04-19T06:02:38.380Z,23680.00
2019-04-19T06:03:48.492Z,21728.00
2019-04-19T06:04:58.326Z,16352.00
2019-04-19T06:05:58.155Z,16800.00
2019-04-19T06:06:54.015Z,24736.00
2019-04-19T06:07:44.510Z,29632.00
2019-04-19T06:08:34.301Z,30688.00
2019-04-19T06:09:30.697Z,27168.00
2019-04-19T06:10:33.047Z,21376.00
2019-04-19T06:11:34.149Z,10152.00
2019-04-19T06:12:33.266Z,9984.00
2019-04-19T06:13:29.817Z,12184.00
2019-04-19T06:14:50.743Z,33408.00
2019-04-19T06:15:55.826Z,38656.00
2019-04-19T06:16:43.511Z,39712.00
2019-04-19T06:17:46.746Z,41056.00
2019-04-19T06:18:44.206Z,42176.00
2019-04-19T06:19:44.551Z,41312.00
2019-04-19T06:20:46.128Z,41088.00
2019-04-19T06:21:48.626Z,41568.00
2019-04-19T06:22:48.676Z,41856.00
2019-04-19T06:23:55.493Z,42592.00
2019-04-19T06:24:48.236Z,42816.00
2019-04-19T06:26:02.804Z,41344.00
2019-04-19T06:27:00.892Z,43104.00
2019-04-19T06:28:11.920Z,44992.00
2019-04-19T06:28:59.758Z,42880.00
2019-04-19T06:29:59.033Z,43232.00
2019-04-19T06:30:53.164Z,43904.00
2019-04-19T06:31:54.940Z,39072.00
2019-04-19T06:33:50.305Z,12052.00
2019-04-19T06:34:44.295Z,15904.00
2019-04-19T06:35:38.572Z,16704.00
2019-04-19T06:36:29.435Z,9508.00
2019-04-19T06:37:31.742Z,10952.00
2019-04-19T06:38:30.947Z,8600.00
2019-04-19T06:42:55.530Z,12112.00
2019-04-19T06:43:58.894Z,13948.00
2019-04-19T06:45:10.620Z,17344.00
2019-04-19T06:46:02.216Z,10092.00
2019-04-19T06:47:01.891Z,22048.00
2019-04-19T06:47:54.868Z,55680.00
2019-04-19T06:48:54.159Z,25376.00
2019-04-19T06:49:49.657Z,19296.00
2019-04-19T06:50:52.253Z,15500.00
2019-04-19T06:51:54.476Z,11808.00
2019-04-19T06:52:47.180Z,7208.00
2019-04-19T06:53:53.920Z,7576.00
2019-04-19T06:54:48.106Z,6500.00
2019-04-19T06:55:50.834Z,5984.00
2019-04-19T06:56:57.099Z,5688.00
2019-04-19T06:57:55.608Z,5672.00
2019-04-19T06:59:00.951Z,5724.00
2019-04-19T06:59:57.761Z,5680.00
2019-04-19T07:01:00.888Z,5704.00
2019-04-19T07:01:51.100Z,5752.00
2019-04-19T07:02:47.622Z,5916.00
2019-04-19T07:03:47.125Z,6144.00
2019-04-19T07:04:56.193Z,7048.00
2019-04-19T07:06:07.400Z,8132.00
2019-04-19T07:07:09.402Z,12120.00
2019-04-19T07:08:09.097Z,17856.00
2019-04-19T07:09:20.087Z,15564.00
2019-04-19T07:10:08.159Z,23264.00
2019-04-19T07:11:16.576Z,33280.00
2019-04-19T07:12:07.530Z,26816.00
2019-04-19T07:13:04.470Z,23616.00
2019-04-19T07:13:56.542Z,34336.00
2019-04-19T07:15:06.631Z,38464.00
2019-04-19T07:16:14.803Z,22848.00
2019-04-19T07:17:07.215Z,17728.00
2019-04-19T07:17:59.878Z,20288.00
2019-04-19T07:19:08.136Z,24544.00
2019-04-19T07:20:04.614Z,10440.00
2019-04-19T07:21:08.021Z,9416.00
2019-04-19T07:22:03.959Z,9872.00
2019-04-19T07:23:02.819Z,12100.00
2019-04-19T07:24:07.882Z,9636.00
2019-04-19T07:25:13.586Z,19360.00
2019-04-19T07:26:13.824Z,25152.00
2019-04-19T07:27:03.282Z,12984.00
2019-04-19T07:27:55.625Z,15920.00
2019-04-19T07:28:47.303Z,16768.00
2019-04-19T07:29:48.272Z,13456.00
2019-04-19T07:30:49.226Z,17504.00
2019-04-19T07:31:46.947Z,21632.00
2019-04-19T07:32:55.624Z,42912.00
2019-04-19T07:33:57.260Z,30208.00
2019-04-19T07:35:00.697Z,18752.00
2019-04-19T07:36:08.869Z,23840.00
2019-04-19T07:37:02.079Z,14816.00
2019-04-19T07:38:11.012Z,14268.00
2019-04-19T07:39:21.514Z,11044.00
2019-04-19T07:41:07.116Z,13644.00
2019-04-19T07:42:15.649Z,11232.00
2019-04-19T07:43:00.347Z,10756.00
2019-04-19T07:44:53.837Z,30752.00
2019-04-19T07:46:09.451Z,16448.00
2019-04-19T07:47:05.031Z,25696.00
2019-04-19T07:47:53.946Z,28448.00
2019-04-19T07:48:47.144Z,24032.00
2019-04-19T07:49:57.301Z,38080.00
2019-04-19T07:50:55.738Z,43104.00
2019-04-19T07:51:56.199Z,38080.00
2019-04-19T07:52:53.773Z,25152.00
2019-04-19T07:53:49.927Z,17760.00
2019-04-19T07:54:53.527Z,16256.00
2019-04-19T07:56:00.756Z,23712.00
2019-04-19T07:56:55.747Z,21568.00
2019-04-19T07:59:27.971Z,30272.00
2019-04-19T08:00:18.943Z,28704.00
2019-04-19T08:03:18.936Z,9652.00
2019-04-19T08:06:11.781Z,7764.00
2019-04-19T08:07:24.270Z,8000.00
2019-04-19T08:09:13.826Z,9548.00
2019-04-19T08:10:09.146Z,11012.00
2019-04-19T08:11:21.857Z,9924.00
2019-04-19T08:13:19.588Z,8624.00
2019-04-19T08:14:11.441Z,15808.00
2019-04-19T08:15:13.407Z,20704.00
2019-04-19T08:16:16.265Z,42208.00
2019-04-19T08:18:13.213Z,64736.00
2019-04-19T08:27:56.338Z,10328.00
2019-04-19T08:28:56.543Z,19120.00
2019-04-19T08:29:50.268Z,8200.00
2019-04-19T08:30:52.870Z,8884.00
2019-04-19T08:31:46.753Z,20352.00
2019-04-19T08:32:45.735Z,13732.00
2019-04-19T08:33:46.504Z,37600.00
2019-04-19T08:34:51.966Z,15580.00
2019-04-19T08:35:50.462Z,8228.00
2019-04-19T08:36:53.183Z,11552.00
2019-04-19T08:37:48.580Z,12532.00
2019-04-19T08:39:04.234Z,8888.00
2019-04-19T08:40:06.928Z,8432.00
2019-04-19T08:41:05.124Z,10400.00
2019-04-19T08:42:07.427Z,22368.00
2019-04-19T08:43:03.471Z,19584.00
2019-04-19T08:43:59.176Z,18644.00
2019-04-19T08:44:54.447Z,31584.00
2019-04-19T08:45:46.713Z,14972.00
2019-04-19T08:46:45.542Z,8064.00
2019-04-19T08:47:57.884Z,18796.00
2019-04-19T08:48:52.078Z,8092.00
2019-04-19T08:49:48.171Z,18368.00
2019-04-19T08:50:50.086Z,31456.00
2019-04-19T08:51:46.765Z,8172.00
2019-04-19T08:52:51.216Z,8440.00
2019-04-19T08:53:56.170Z,14984.00
2019-04-19T08:55:04.978Z,22368.00
2019-04-19T08:56:01.659Z,15048.00
2019-04-19T08:56:55.954Z,21248.00
2019-04-19T08:57:53.574Z,15688.00
2019-04-19T08:59:00.387Z,109824.00
2019-04-19T09:00:07.907Z,8548.00
2019-04-19T09:01:09.140Z,22752.00
2019-04-19T09:02:05.620Z,25472.00
2019-04-19T09:03:01.471Z,18752.00
2019-04-19T09:05:04.882Z,45344.00
2019-04-19T09:06:32.576Z,29408.00
2019-04-19T09:08:05.649Z,42528.00
2019-04-19T09:12:07.155Z,18688.00
2019-04-19T09:13:12.261Z,33312.00
2019-04-19T09:14:05.094Z,68608.00
2019-04-19T09:15:03.898Z,58048.00
2019-04-19T09:16:00.699Z,52832.00
2019-04-19T09:17:10.111Z,42048.00
2019-04-19T09:19:12.361Z,42208.00
2019-04-19T09:20:25.450Z,32416.00
2019-04-19T09:21:05.075Z,71744.00
2019-04-19T09:21:58.201Z,58816.00
2019-04-19T09:23:00.084Z,32384.00
2019-04-19T09:23:52.899Z,44416.00
2019-04-19T09:24:56.023Z,69440.00
2019-04-19T09:25:55.814Z,68928.00
2019-04-19T09:27:01.280Z,58144.00
2019-04-19T09:28:11.376Z,69984.00
2019-04-19T09:29:13.370Z,80608.00
2019-04-19T09:30:06.483Z,78656.00
2019-04-19T09:31:40.922Z,27136.00
2019-04-19T09:32:33.924Z,68800.00
2019-04-19T09:33:33.924Z,63392.00
2019-04-19T09:34:30.369Z,26528.00
2019-04-19T09:35:31.012Z,40608.00
2019-04-19T09:36:35.830Z,81216.00
2019-04-19T09:37:47.730Z,26560.00
2019-04-19T09:38:46.111Z,32064.00
2019-04-19T09:39:41.386Z,86144.00
2019-04-19T09:40:39.026Z,83008.00
2019-04-19T09:41:38.327Z,77856.00
2019-04-19T09:42:44.612Z,89184.00
2019-04-19T09:43:41.224Z,60960.00
2019-04-19T09:44:37.532Z,63968.00
2019-04-19T09:45:29.744Z,85120.00
2019-04-19T09:46:29.608Z,86720.00
2019-04-19T09:47:29.213Z,87488.00
2019-04-19T09:48:47.544Z,87936.00
2019-04-19T09:49:46.296Z,90272.00
2019-04-19T09:50:45.225Z,90848.00
2019-04-19T09:51:46.805Z,89184.00
2019-04-19T09:52:49.740Z,88736.00
2019-04-19T09:53:53.254Z,89984.00
2019-04-19T09:54:51.666Z,92640.00
2019-04-19T09:55:49.821Z,88128.00
2019-04-19T09:56:44.279Z,81056.00
2019-04-19T09:57:49.834Z,86752.00
2019-04-19T09:58:44.936Z,98592.00
2019-04-19T09:59:34.109Z,100352.00
2019-04-19T10:00:31.711Z,95936.00
2019-04-19T10:01:41.674Z,91232.00
2019-04-19T10:02:37.828Z,93280.00
2019-04-19T10:03:37.993Z,94976.00
2019-04-19T10:04:29.496Z,93248.00
2019-04-19T10:05:28.971Z,85472.00
2019-04-19T10:06:28.967Z,80576.00
2019-04-19T10:07:29.196Z,83552.00
2019-04-19T10:08:30.593Z,90688.00
2019-04-19T10:09:29.008Z,95200.00
2019-04-19T10:10:29.131Z,94016.00
2019-04-19T10:11:28.967Z,94016.00
2019-04-19T10:12:29.280Z,94208.00
2019-04-19T10:13:30.012Z,90016.00
2019-04-19T10:14:29.829Z,90336.00
2019-04-19T10:15:30.017Z,95680.00
2019-04-19T10:16:28.936Z,92768.00
2019-04-19T10:17:28.940Z,83520.00
2019-04-19T10:18:28.930Z,78592.00
2019-04-19T10:19:28.941Z,80960.00
2019-04-19T10:20:28.927Z,85984.00
2019-04-19T10:21:33.377Z,87488.00
2019-04-19T10:22:28.931Z,88736.00
2019-04-19T10:23:29.402Z,90464.00
2019-04-19T10:24:29.492Z,85280.00
2019-04-19T10:25:29.694Z,77920.00
2019-04-19T10:26:29.903Z,78816.00
2019-04-19T10:27:29.341Z,85120.00
2019-04-19T10:28:30.120Z,88512.00
2019-04-19T10:29:34.737Z,92224.00
2019-04-19T10:30:30.042Z,93344.00
2019-04-19T10:31:29.519Z,88736.00
2019-04-19T10:32:28.904Z,82400.00
2019-04-19T10:33:36.952Z,81056.00
2019-04-19T10:34:30.210Z,81920.00
2019-04-19T10:35:29.486Z,83072.00
2019-04-19T10:36:28.985Z,83136.00
2019-04-19T10:37:28.911Z,84128.00
2019-04-19T10:38:29.655Z,87168.00
2019-04-19T10:39:29.980Z,86464.00
2019-04-19T10:40:28.898Z,84224.00
2019-04-19T10:41:29.397Z,85088.00
2019-04-19T10:42:29.361Z,82976.00
2019-04-19T10:43:29.364Z,79584.00
2019-04-19T10:44:29.881Z,82016.00
2019-04-19T10:45:30.056Z,87200.00
2019-04-19T10:46:28.921Z,85504.00
2019-04-19T10:47:29.401Z,80256.00
2019-04-19T10:48:29.628Z,81344.00
2019-04-19T10:49:36.035Z,85376.00
2019-04-19T10:50:37.584Z,86176.00
2019-04-19T10:51:29.841Z,85248.00
2019-04-19T10:52:29.248Z,80672.00
2019-04-19T10:53:28.877Z,75488.00
2019-04-19T10:54:28.875Z,76672.00
2019-04-19T10:55:28.865Z,80864.00
2019-04-19T10:56:29.875Z,84928.00
2019-04-19T10:57:29.763Z,86464.00
2019-04-19T10:58:29.608Z,85696.00
2019-04-19T10:59:30.135Z,83872.00
2019-04-19T11:00:29.295Z,85664.00
2019-04-19T11:01:29.420Z,83264.00
2019-04-19T11:02:29.831Z,80064.00
2019-04-19T11:03:28.864Z,75840.00
2019-04-19T11:04:28.935Z,72416.00
2019-04-19T11:05:29.101Z,67296.00
2019-04-19T11:06:29.369Z,66016.00
2019-04-19T11:07:29.775Z,66880.00
2019-04-19T11:08:28.847Z,74016.00
2019-04-19T11:09:28.845Z,78400.00
2019-04-19T11:10:29.527Z,79104.00
2019-04-19T11:11:29.750Z,79392.00
2019-04-19T11:12:28.856Z,75552.00
2019-04-19T11:13:29.580Z,74080.00
2019-04-19T11:14:30.174Z,76672.00
2019-04-19T11:15:28.851Z,81728.00
2019-04-19T11:16:29.096Z,82624.00
2019-04-19T11:17:29.698Z,85536.00
2019-04-19T11:18:29.900Z,86592.00
2019-04-19T11:19:47.327Z,87616.00
2019-04-19T11:20:36.402Z,83968.00
2019-04-19T11:21:29.669Z,76384.00
2019-04-19T11:22:29.946Z,69920.00
2019-04-19T11:23:29.399Z,68256.00
2019-04-19T11:24:29.903Z,66976.00
2019-04-19T11:25:29.108Z,66400.00
2019-04-19T11:26:28.818Z,66976.00
2019-04-19T11:27:29.109Z,68192.00
2019-04-19T11:28:29.184Z,71232.00
2019-04-19T11:29:28.853Z,71744.00
2019-04-19T11:30:28.855Z,72928.00
2019-04-19T11:31:29.789Z,73888.00
2019-04-19T11:32:28.804Z,71552.00
2019-04-19T11:33:28.814Z,69376.00
2019-04-19T11:34:29.239Z,68640.00
2019-04-19T11:35:29.629Z,66784.00
2019-04-19T11:36:29.282Z,66464.00
2019-04-19T11:37:29.711Z,66048.00
2019-04-19T11:38:29.143Z,65856.00
2019-04-19T11:39:28.780Z,69952.00
2019-04-19T11:40:29.084Z,74656.00
2019-04-19T11:41:29.190Z,79200.00
2019-04-19T11:42:28.770Z,82784.00
2019-04-19T11:43:29.582Z,85120.00
2019-04-19T11:44:29.936Z,85504.00
2019-04-19T11:45:30.105Z,86656.00
2019-04-19T11:46:29.851Z,86752.00
2019-04-19T11:47:29.105Z,88480.00
2019-04-19T11:48:32.607Z,85408.00
2019-04-19T11:49:35.223Z,86464.00
2019-04-19T11:50:29.525Z,90528.00
2019-04-19T11:51:29.910Z,86688.00
2019-04-19T11:52:30.052Z,74080.00
2019-04-19T11:53:28.733Z,39008.00
2019-04-19T11:54:28.715Z,13660.00
2019-04-19T11:55:28.714Z,11352.00
2019-04-19T11:56:34.813Z,10064.00
2019-04-19T11:57:28.700Z,9156.00
2019-04-19T11:58:32.445Z,8444.00
2019-04-19T11:59:37.136Z,7840.00
2019-04-19T12:00:29.599Z,6948.00
2019-04-19T12:01:30.039Z,5816.00
2019-04-19T12:02:29.125Z,5340.00
2019-04-19T12:03:29.942Z,5268.00
2019-04-19T12:04:28.662Z,5168.00
2019-04-19T12:05:32.177Z,5136.00
2019-04-19T12:06:28.637Z,5068.00
2019-04-19T12:07:28.628Z,4992.00
2019-04-19T12:08:28.864Z,4976.00
2019-04-19T12:09:28.612Z,4940.00
2019-04-19T12:10:31.128Z,4932.00
2019-04-19T12:11:28.596Z,4876.00
2019-04-19T12:12:28.593Z,4816.00
2019-04-19T12:13:29.137Z,4784.00
2019-04-19T12:14:30.062Z,4772.00
2019-04-19T12:15:29.590Z,4756.00
2019-04-19T12:16:28.824Z,4780.00
2019-04-19T12:17:29.237Z,4772.00
2019-04-19T12:18:28.564Z,4768.00
2019-04-19T12:19:38.610Z,4700.00
2019-04-19T12:20:28.955Z,4696.00
2019-04-19T12:21:29.353Z,4708.00
2019-04-19T12:22:28.502Z,4756.00
2019-04-19T12:23:29.647Z,4716.00
2019-04-19T12:24:28.811Z,4688.00
2019-04-19T12:25:28.450Z,4612.00
2019-04-19T12:26:29.522Z,4596.00
2019-04-19T12:27:29.636Z,4580.00
2019-04-19T12:28:28.422Z,4572.00
2019-04-19T12:29:35.369Z,4528.00
2019-04-19T12:30:29.551Z,4540.00
2019-04-19T12:31:29.568Z,4572.00
2019-04-19T12:32:29.644Z,4568.00
2019-04-19T12:33:29.194Z,4556.00
2019-04-19T12:34:28.777Z,4516.00
2019-04-19T12:35:29.653Z,4544.00
2019-04-19T12:36:28.944Z,4580.00
2019-04-19T12:37:29.043Z,4604.00
2019-04-19T12:38:28.372Z,4608.00
2019-04-19T12:39:28.292Z,4616.00
2019-04-19T12:40:29.622Z,4600.00
2019-04-19T12:41:28.341Z,4584.00
2019-04-19T12:42:28.309Z,4592.00
2019-04-19T12:43:28.247Z,4584.00
2019-04-19T12:44:29.072Z,4548.00
2019-04-19T12:45:28.226Z,4540.00
2019-04-19T12:46:28.598Z,4512.00
2019-04-19T12:47:28.982Z,4512.00
2019-04-19T12:48:28.182Z,4500.00
2019-04-19T12:49:28.169Z,4488.00
2019-04-19T12:50:29.415Z,4404.00
2019-04-19T12:51:28.149Z,4448.00
2019-04-19T12:52:28.222Z,4468.00
2019-04-19T12:53:28.660Z,4440.00
2019-04-19T12:54:28.101Z,4440.00
2019-04-19T12:55:28.201Z,4444.00
2019-04-19T12:56:28.082Z,4456.00
2019-04-19T12:57:28.138Z,4472.00